Spring Grove, Pennsylvania
Current Conditions -  °F | °C
As of 8:53 PM on Thursday 18 Dec 2014 (Local Time) from KTHV Reporting Station
Overcast Overcast  
Wind Chill: 30°   Ceiling: 3000
Heat Index: 35°   Visibility: 10mi
Dew Point: 24°   Wind: 6mph
Humidity: 64%   Direction: 300°WNW
Pressure: 30.08"   Gusts: NA
Location:  39.87°N, 76.87°W
Report Text: KTHV 190153Z AUTO 30005KT 10SM OVC030 02/M04 A3008 RMK AO2 SLP193 T00171044
Loading
Personal Weather Stations






























Interactive Weather Map New forecast layout! Learn more

10-Day Weather Forecast

Advertisements
Track Severe Weather on mobile